createdAt,value
2016-08-28T00:00:13.032Z,58.70
2016-08-28T00:01:12.012Z,58.70
2016-08-28T00:02:18.741Z,58.60
2016-08-28T00:03:12.404Z,58.60
2016-08-28T00:04:12.733Z,58.70
2016-08-28T00:05:14.022Z,58.70
2016-08-28T00:06:13.560Z,58.60
2016-08-28T00:07:13.835Z,58.70
2016-08-28T00:08:29.360Z,58.60
2016-08-28T00:09:16.479Z,58.60
2016-08-28T00:10:15.790Z,59.00
2016-08-28T00:11:17.215Z,59.20
2016-08-28T00:12:16.190Z,59.20
2016-08-28T00:13:16.474Z,59.00
2016-08-28T00:14:13.099Z,59.00
2016-08-28T00:15:11.493Z,is
2016-08-28T00:16:11.096Z,is
2016-08-28T00:17:13.662Z,58.00
2016-08-28T00:18:12.914Z,58.20
2016-08-28T00:19:13.759Z,58.30
2016-08-28T00:20:11.852Z,58.20
2016-08-28T00:21:16.322Z,58.10
2016-08-28T00:22:17.027Z,58.20
2016-08-28T00:23:16.352Z,58.20
2016-08-28T00:24:12.990Z,58.10
2016-08-28T00:25:21.851Z,is
2016-08-28T00:26:14.815Z,58.20
2016-08-28T00:27:15.844Z,58.20
2016-08-28T00:28:22.972Z,58.40
2016-08-28T00:29:19.825Z,58.40
2016-08-28T00:30:17.888Z,58.60
2016-08-28T00:31:25.995Z,58.40
2016-08-28T00:32:31.031Z,58.50
2016-08-28T00:33:33.168Z,58.40
2016-08-28T00:34:29.378Z,58.40
2016-08-28T00:35:13.311Z,58.40
2016-08-28T00:36:19.402Z,58.50
2016-08-28T00:37:31.033Z,58.50
2016-08-28T00:38:29.035Z,58.50
2016-08-28T00:39:28.364Z,is
2016-08-28T00:40:23.828Z,58.60
2016-08-28T00:41:43.773Z,58.70
2016-08-28T00:42:24.571Z,58.70
2016-08-28T00:43:36.379Z,58.70
2016-08-28T00:44:27.399Z,59.10
2016-08-28T00:45:28.336Z,58.80
2016-08-28T00:46:35.673Z,58.60
2016-08-28T00:47:33.866Z,58.70
2016-08-28T00:49:39.052Z,is
2016-08-28T00:50:29.798Z,58.70
2016-08-28T00:51:27.206Z,58.70
2016-08-28T00:52:29.792Z,58.70
2016-08-28T00:53:22.593Z,59.10
2016-08-28T00:54:37.448Z,59.40
2016-08-28T00:55:27.332Z,59.00
2016-08-28T00:56:32.919Z,59.10
2016-08-28T00:57:39.577Z,59.10
2016-08-28T00:58:23.381Z,59.20
2016-08-28T00:59:31.608Z,59.80
2016-08-28T01:00:25.572Z,59.10
2016-08-28T01:01:33.680Z,59.20
2016-08-28T01:02:23.865Z,59.20
2016-08-28T01:03:32.876Z,59.20
2016-08-28T01:04:23.525Z,59.10
2016-08-28T01:05:24.087Z,59.10
2016-08-28T01:06:26.077Z,59.10
2016-08-28T01:07:19.710Z,59.10
2016-08-28T01:08:18.474Z,59.10
2016-08-28T01:09:27.501Z,59.00
2016-08-28T01:10:23.870Z,59.00
2016-08-28T01:11:28.430Z,59.10
2016-08-28T01:12:31.687Z,58.90
2016-08-28T01:13:39.127Z,58.90
2016-08-28T01:14:34.161Z,59.10
2016-08-28T01:15:27.217Z,59.10
2016-08-28T01:16:32.348Z,58.90
2016-08-28T01:17:32.774Z,59.10
2016-08-28T01:18:33.287Z,58.90
2016-08-28T01:19:44.339Z,59.00
2016-08-28T01:20:32.785Z,58.90
2016-08-28T01:21:24.112Z,59.00
2016-08-28T01:22:32.811Z,58.70
2016-08-28T01:23:27.277Z,58.80
2016-08-28T01:24:32.847Z,58.60
2016-08-28T01:25:28.323Z,58.70
2016-08-28T01:26:35.333Z,58.90
2016-08-28T01:27:25.997Z,58.80
2016-08-28T01:28:23.266Z,58.80
2016-08-28T01:29:33.144Z,58.80
2016-08-28T01:30:39.022Z,58.70
2016-08-28T01:31:25.904Z,58.90
2016-08-28T01:32:15.683Z,58.80
2016-08-28T01:33:24.230Z,58.70
2016-08-28T01:34:17.311Z,58.70
2016-08-28T01:35:28.898Z,58.70
2016-08-28T01:36:33.469Z,58.70
2016-08-28T01:37:26.357Z,58.70
2016-08-28T01:38:29.231Z,58.70
2016-08-28T01:39:22.620Z,58.60
2016-08-28T01:40:22.226Z,58.70
2016-08-28T01:41:33.468Z,58.60
2016-08-28T01:42:28.966Z,58.60
2016-08-28T01:43:22.887Z,58.60
2016-08-28T01:44:23.344Z,58.50
2016-08-28T01:45:26.209Z,58.40
2016-08-28T01:46:32.295Z,58.30
2016-08-28T01:47:23.515Z,58.60
2016-08-28T01:48:28.907Z,58.50
2016-08-28T01:49:34.387Z,58.50
2016-08-28T01:50:33.107Z,58.60
2016-08-28T01:51:29.238Z,58.40
2016-08-28T01:52:30.166Z,58.50
2016-08-28T01:53:27.298Z,58.60
2016-08-28T01:54:21.409Z,is
2016-08-28T01:55:22.087Z,58.60
2016-08-28T01:56:33.432Z,58.60
2016-08-28T01:57:42.974Z,58.30
2016-08-28T01:58:38.229Z,58.40
2016-08-28T01:59:26.523Z,58.40
2016-08-28T02:00:24.184Z,58.40
2016-08-28T02:01:32.826Z,58.40
2016-08-28T02:02:23.274Z,57.50
2016-08-28T02:03:29.107Z,58.40
2016-08-28T02:04:23.119Z,58.30
2016-08-28T02:05:22.214Z,58.40
2016-08-28T02:06:35.402Z,58.40
2016-08-28T02:07:28.664Z,58.30
2016-08-28T02:08:21.323Z,58.50
2016-08-28T02:09:33.184Z,58.30
2016-08-28T02:10:22.145Z,58.30
2016-08-28T02:11:29.895Z,58.50
2016-08-28T02:12:31.821Z,58.40
2016-08-28T02:13:35.699Z,58.50
2016-08-28T02:14:34.167Z,58.50
2016-08-28T02:15:31.622Z,58.50
2016-08-28T02:16:23.042Z,58.50
2016-08-28T02:17:16.320Z,58.30
2016-08-28T02:18:33.072Z,58.50
2016-08-28T02:19:23.620Z,58.30
2016-08-28T02:20:24.730Z,58.50
2016-08-28T02:21:23.845Z,58.50
2016-08-28T02:22:31.720Z,58.50
2016-08-28T02:23:23.022Z,58.40
2016-08-28T02:24:32.763Z,58.40
2016-08-28T02:25:32.797Z,58.40
2016-08-28T02:26:23.044Z,58.30
2016-08-28T02:27:38.839Z,58.20
2016-08-28T02:28:28.677Z,58.20
2016-08-28T02:29:28.780Z,58.20
2016-08-28T02:30:26.643Z,58.00
2016-08-28T02:31:28.946Z,58.20
2016-08-28T02:32:33.384Z,58.20
2016-08-28T02:33:27.477Z,58.20
2016-08-28T02:34:27.063Z,58.10
2016-08-28T02:35:33.036Z,58.30
2016-08-28T02:36:25.381Z,58.10
2016-08-28T02:37:23.379Z,58.10
2016-08-28T02:38:38.104Z,58.10
2016-08-28T02:39:30.102Z,58.20
2016-08-28T02:40:25.810Z,58.00
2016-08-28T02:41:29.313Z,58.20
2016-08-28T02:42:29.386Z,58.20
2016-08-28T02:43:21.819Z,58.30
2016-08-28T02:44:21.635Z,58.20
2016-08-28T02:45:27.844Z,58.00
2016-08-28T02:46:29.040Z,58.10
2016-08-28T02:47:32.727Z,57.80
2016-08-28T02:48:22.786Z,58.00
2016-08-28T02:49:31.460Z,58.10
2016-08-28T02:50:17.845Z,is
2016-08-28T02:51:30.138Z,58.00
2016-08-28T02:52:32.801Z,58.10
2016-08-28T02:53:32.742Z,58.00
2016-08-28T02:54:31.727Z,58.00
2016-08-28T02:55:29.885Z,58.20
2016-08-28T02:56:23.510Z,58.20
2016-08-28T02:57:26.437Z,57.90
2016-08-28T02:58:32.742Z,58.00
2016-08-28T02:59:29.093Z,58.10
2016-08-28T03:00:33.193Z,58.20
2016-08-28T03:01:28.820Z,58.20
2016-08-28T03:02:31.488Z,58.10
2016-08-28T03:03:23.215Z,58.20
2016-08-28T03:04:21.915Z,58.10
2016-08-28T03:05:29.039Z,58.10
2016-08-28T03:06:33.161Z,58.10
2016-08-28T03:07:28.027Z,58.10
2016-08-28T03:08:27.541Z,58.10
2016-08-28T03:09:33.908Z,58.00
2016-08-28T03:10:21.908Z,is
2016-08-28T03:11:33.669Z,58.20
2016-08-28T03:12:20.647Z,58.20
2016-08-28T03:13:32.667Z,58.20
2016-08-28T03:14:29.057Z,58.20
2016-08-28T03:15:29.009Z,58.20
2016-08-28T03:16:25.654Z,58.20
2016-08-28T03:17:30.793Z,58.10
2016-08-28T03:18:30.732Z,58.20
2016-08-28T03:19:23.611Z,58.20
2016-08-28T03:20:28.049Z,58.20
2016-08-28T03:21:27.637Z,58.20
2016-08-28T03:22:33.014Z,58.30
2016-08-28T03:23:27.761Z,58.30
2016-08-28T03:24:24.779Z,58.30
2016-08-28T03:25:28.809Z,58.40
2016-08-28T03:26:28.802Z,58.40
2016-08-28T03:27:27.657Z,58.50
2016-08-28T03:28:24.079Z,58.50
2016-08-28T03:29:28.894Z,58.50
2016-08-28T03:30:17.065Z,58.50
2016-08-28T03:31:29.032Z,58.60
2016-08-28T03:32:15.687Z,58.60
2016-08-28T03:33:20.920Z,58.60
2016-08-28T03:34:20.022Z,58.60
2016-08-28T03:35:24.854Z,58.50
2016-08-28T03:36:23.085Z,58.60
2016-08-28T03:37:33.606Z,58.70
2016-08-28T03:38:33.633Z,58.70
2016-08-28T03:39:24.141Z,58.70
2016-08-28T03:40:31.065Z,58.70
2016-08-28T03:41:29.064Z,58.80
2016-08-28T03:42:31.311Z,58.80
2016-08-28T03:43:33.607Z,58.80
2016-08-28T03:44:33.043Z,is
2016-08-28T03:45:32.177Z,59.00
2016-08-28T03:46:22.790Z,58.70
2016-08-28T03:47:33.855Z,58.70
2016-08-28T03:48:27.702Z,58.60
2016-08-28T03:49:23.210Z,58.60
2016-08-28T03:50:29.368Z,58.60
2016-08-28T03:51:29.501Z,58.40
2016-08-28T03:52:33.223Z,58.60
2016-08-28T03:53:22.742Z,58.40
2016-08-28T03:54:33.842Z,57.70
2016-08-28T03:55:29.175Z,58.30
2016-08-28T03:56:23.178Z,58.20
2016-08-28T03:57:28.935Z,58.20
2016-08-28T03:58:26.590Z,58.30
2016-08-28T03:59:37.280Z,58.50
2016-08-28T04:00:33.629Z,58.40
2016-08-28T04:01:28.240Z,58.50
2016-08-28T04:02:24.161Z,58.60
2016-08-28T04:03:33.700Z,58.60
2016-08-28T04:04:27.373Z,58.50
2016-08-28T04:05:24.294Z,is
2016-08-28T04:06:26.432Z,58.60
2016-08-28T04:07:33.477Z,58.60
2016-08-28T04:08:32.718Z,58.40
2016-08-28T04:09:22.678Z,58.50
2016-08-28T04:10:23.055Z,58.60
2016-08-28T04:11:31.811Z,58.30
2016-08-28T04:12:28.029Z,58.20
2016-08-28T04:13:28.962Z,58.60
2016-08-28T04:14:23.449Z,58.70
2016-08-28T04:15:33.387Z,58.90
2016-08-28T04:16:29.794Z,58.80
2016-08-28T04:17:23.078Z,58.90
2016-08-28T04:18:28.477Z,59.20
2016-08-28T04:19:20.463Z,59.00
2016-08-28T04:20:28.946Z,58.80
2016-08-28T04:21:27.191Z,58.90
2016-08-28T04:22:28.328Z,59.10
2016-08-28T04:23:37.869Z,58.90
2016-08-28T04:24:23.732Z,59.10
2016-08-28T04:25:36.698Z,59.20
2016-08-28T04:26:28.523Z,59.00
2016-08-28T04:27:38.105Z,59.10
2016-08-28T04:28:33.660Z,59.10
2016-08-28T04:29:33.303Z,59.10
2016-08-28T04:30:33.281Z,59.10
2016-08-28T04:31:30.666Z,59.10
2016-08-28T04:32:19.302Z,59.20
2016-08-28T04:33:34.403Z,59.20
2016-08-28T04:34:27.953Z,59.30
2016-08-28T04:35:32.037Z,59.20
2016-08-28T04:36:27.726Z,59.20
2016-08-28T04:37:27.757Z,59.20
2016-08-28T04:38:29.060Z,59.20
2016-08-28T04:39:32.854Z,59.20
2016-08-28T04:40:26.110Z,59.20
2016-08-28T04:41:29.148Z,59.30
2016-08-28T04:42:32.769Z,59.20
2016-08-28T04:43:29.994Z,59.30
2016-08-28T04:44:34.458Z,59.30
2016-08-28T04:45:29.436Z,59.20
2016-08-28T04:46:24.291Z,is
2016-08-28T04:47:33.161Z,59.20
2016-08-28T04:48:29.037Z,59.20
2016-08-28T04:49:22.630Z,59.20
2016-08-28T04:50:28.051Z,59.20
2016-08-28T04:51:21.611Z,59.20
2016-08-28T04:52:31.904Z,59.20
2016-08-28T04:53:26.445Z,is
2016-08-28T04:54:28.065Z,59.30
2016-08-28T04:55:28.229Z,59.10
2016-08-28T04:56:25.676Z,59.20
2016-08-28T04:57:23.134Z,59.10
2016-08-28T04:58:23.837Z,59.40
2016-08-28T04:59:33.167Z,59.40
2016-08-28T05:00:31.363Z,59.40
2016-08-28T05:01:29.920Z,59.60
2016-08-28T05:02:27.727Z,is
2016-08-28T05:03:30.411Z,59.40
2016-08-28T05:04:16.327Z,is
2016-08-28T05:05:29.426Z,59.40
2016-08-28T05:06:22.367Z,59.70
2016-08-28T05:07:28.455Z,59.60
2016-08-28T05:08:27.992Z,59.70
2016-08-28T05:09:29.337Z,59.60
2016-08-28T05:10:31.922Z,59.70
2016-08-28T05:11:22.980Z,60.10
2016-08-28T05:12:32.157Z,59.80
2016-08-28T05:13:20.493Z,59.50
2016-08-28T05:14:29.052Z,59.70
2016-08-28T05:15:20.949Z,59.40
2016-08-28T05:16:33.478Z,59.30
2016-08-28T05:17:29.066Z,59.50
2016-08-28T05:18:22.762Z,59.20
2016-08-28T05:19:28.755Z,59.30
2016-08-28T05:20:33.397Z,59.30
2016-08-28T05:21:24.744Z,59.20
2016-08-28T05:22:38.477Z,59.10
2016-08-28T05:23:32.394Z,59.10
2016-08-28T05:24:29.105Z,59.00
2016-08-28T05:25:24.358Z,58.90
2016-08-28T05:26:30.925Z,58.80
2016-08-28T05:27:25.505Z,58.80
2016-08-28T05:28:27.844Z,58.70
2016-08-28T05:29:26.228Z,58.60
2016-08-28T05:30:21.989Z,is
2016-08-28T05:31:20.411Z,58.60
2016-08-28T05:32:27.829Z,58.60
2016-08-28T05:33:28.288Z,58.70
2016-08-28T05:34:22.744Z,58.80
2016-08-28T05:35:35.603Z,is
2016-08-28T05:36:22.579Z,58.80
2016-08-28T05:37:28.248Z,58.70
2016-08-28T05:38:41.615Z,58.70
2016-08-28T05:39:29.465Z,58.70
2016-08-28T05:40:33.895Z,58.70
2016-08-28T05:41:27.245Z,58.70
2016-08-28T05:42:33.350Z,58.70
2016-08-28T05:43:23.765Z,58.70
2016-08-28T05:44:26.498Z,58.70
2016-08-28T05:45:32.497Z,58.70
2016-08-28T05:46:33.899Z,58.90
2016-08-28T05:47:31.799Z,58.80
2016-08-28T05:48:20.846Z,58.70
2016-08-28T05:49:32.991Z,58.70
2016-08-28T05:50:29.199Z,59.00
2016-08-28T05:51:33.765Z,58.80
2016-08-28T05:52:29.136Z,58.80
2016-08-28T05:53:32.433Z,58.80
2016-08-28T05:54:33.188Z,59.20
2016-08-28T05:55:33.492Z,59.10
2016-08-28T05:56:29.306Z,58.90
2016-08-28T05:57:33.327Z,59.40
2016-08-28T05:58:30.487Z,59.20
2016-08-28T05:59:33.266Z,59.40
2016-08-28T06:00:15.473Z,is
2016-08-28T06:01:23.195Z,60.10
2016-08-28T06:02:39.441Z,60.20
2016-08-28T06:03:29.741Z,60.00
2016-08-28T06:04:31.336Z,60.00
2016-08-28T06:05:31.289Z,59.30
2016-08-28T06:06:26.579Z,60.30
2016-08-28T06:07:33.561Z,60.20
2016-08-28T06:08:30.004Z,60.30
2016-08-28T06:09:23.188Z,60.30
2016-08-28T06:10:19.062Z,60.70
2016-08-28T06:11:30.128Z,60.20
2016-08-28T06:12:12.970Z,60.30
2016-08-28T06:13:34.461Z,60.30
2016-08-28T06:14:35.643Z,60.40
2016-08-28T06:15:23.605Z,60.20
2016-08-28T06:16:23.815Z,60.30
2016-08-28T06:17:31.639Z,60.20
2016-08-28T06:18:28.459Z,60.20
2016-08-28T06:19:33.802Z,59.70
2016-08-28T06:20:24.768Z,60.00
2016-08-28T06:21:23.499Z,60.20
2016-08-28T06:22:33.700Z,59.80
2016-08-28T06:23:30.628Z,59.90
2016-08-28T06:24:32.743Z,59.90
2016-08-28T06:25:21.058Z,59.70
2016-08-28T06:26:22.539Z,59.70
2016-08-28T06:27:38.717Z,59.70
2016-08-28T06:28:22.885Z,59.60
2016-08-28T06:29:27.702Z,59.30
2016-08-28T06:30:38.970Z,59.60
2016-08-28T06:31:27.512Z,59.50
2016-08-28T06:32:33.656Z,59.50
2016-08-28T06:33:29.677Z,59.50
2016-08-28T06:34:32.454Z,59.50
2016-08-28T06:35:29.693Z,59.50
2016-08-28T06:36:21.151Z,59.70
2016-08-28T06:37:33.692Z,59.50
2016-08-28T06:38:19.069Z,59.30
2016-08-28T06:39:35.034Z,59.70
2016-08-28T06:40:28.089Z,59.60
2016-08-28T06:41:43.408Z,59.60
2016-08-28T06:42:38.181Z,59.50
2016-08-28T06:43:23.670Z,59.60
2016-08-28T06:44:39.181Z,59.50
2016-08-28T06:45:27.765Z,59.30
2016-08-28T06:46:27.310Z,59.30
2016-08-28T06:47:32.941Z,59.90
2016-08-28T06:48:19.242Z,60.30
2016-08-28T06:49:23.137Z,60.20
2016-08-28T06:50:30.990Z,59.60
2016-08-28T06:51:33.802Z,59.70
2016-08-28T06:52:33.914Z,60.00
2016-08-28T06:53:26.126Z,59.90
2016-08-28T06:54:29.618Z,59.70
2016-08-28T06:55:26.143Z,59.60
2016-08-28T06:56:27.528Z,59.50
2016-08-28T06:57:33.616Z,59.40
2016-08-28T06:58:22.799Z,59.40
2016-08-28T06:59:29.255Z,59.50
2016-08-28T07:00:33.359Z,59.40
2016-08-28T07:01:28.487Z,59.30
2016-08-28T07:02:38.820Z,59.40
2016-08-28T07:03:12.096Z,59.80
2016-08-28T07:04:38.571Z,59.90
2016-08-28T07:05:32.718Z,59.80
2016-08-28T07:06:21.932Z,59.70
2016-08-28T07:07:38.819Z,59.80
2016-08-28T07:08:33.590Z,59.70
2016-08-28T07:09:29.489Z,59.90
2016-08-28T07:10:15.682Z,59.80
2016-08-28T07:11:33.821Z,59.80
2016-08-28T07:12:22.023Z,60.00
2016-08-28T07:13:32.800Z,59.80
2016-08-28T07:14:32.002Z,59.80
2016-08-28T07:15:23.184Z,59.60
2016-08-28T07:16:31.825Z,59.70
2016-08-28T07:17:30.971Z,is
2016-08-28T07:18:42.333Z,is
2016-08-28T07:19:31.439Z,59.70
2016-08-28T07:20:28.650Z,59.90
2016-08-28T07:21:26.539Z,59.70
2016-08-28T07:22:40.200Z,59.60
2016-08-28T07:23:22.139Z,60.30
2016-08-28T07:24:33.722Z,60.10
2016-08-28T07:25:31.189Z,59.80
2016-08-28T07:26:34.734Z,60.00
2016-08-28T07:27:35.763Z,60.30
2016-08-28T07:28:32.371Z,59.70
2016-08-28T07:29:31.144Z,60.30
2016-08-28T07:30:24.362Z,60.30
2016-08-28T07:31:22.227Z,60.30
2016-08-28T07:32:31.021Z,60.20
2016-08-28T07:33:22.560Z,60.20
2016-08-28T07:34:31.328Z,is
2016-08-28T07:35:37.459Z,60.00
2016-08-28T07:36:21.697Z,60.00
2016-08-28T07:37:21.855Z,59.90
2016-08-28T07:38:32.770Z,60.00
2016-08-28T07:39:17.778Z,60.00
2016-08-28T07:40:25.016Z,59.80
2016-08-28T07:41:34.071Z,59.90
2016-08-28T07:42:31.312Z,59.70
2016-08-28T07:43:39.208Z,59.90
2016-08-28T07:44:22.752Z,59.90
2016-08-28T07:45:28.774Z,60.00
2016-08-28T07:46:22.371Z,59.90
2016-08-28T07:47:24.284Z,59.80
2016-08-28T07:48:34.444Z,59.70
2016-08-28T07:49:34.118Z,59.70
2016-08-28T07:50:22.721Z,59.70
2016-08-28T07:51:30.459Z,59.90
2016-08-28T07:52:33.687Z,59.80
2016-08-28T07:53:26.443Z,59.70
2016-08-28T07:54:22.746Z,59.60
2016-08-28T07:55:22.443Z,59.60
2016-08-28T07:56:22.325Z,59.70
2016-08-28T07:57:23.847Z,59.60
2016-08-28T07:58:23.166Z,59.60
2016-08-28T07:59:31.092Z,is
2016-08-28T08:00:22.538Z,59.60
2016-08-28T08:01:24.697Z,59.60
2016-08-28T08:02:43.956Z,59.50
2016-08-28T08:03:22.462Z,59.60
2016-08-28T08:04:29.122Z,59.40
2016-08-28T08:05:23.415Z,59.40
2016-08-28T08:06:33.247Z,59.60
2016-08-28T08:07:32.503Z,59.40
2016-08-28T08:08:21.777Z,59.50
2016-08-28T08:09:21.075Z,is
2016-08-28T08:10:20.524Z,59.40
2016-08-28T08:11:32.775Z,59.40
2016-08-28T08:12:22.512Z,59.40
2016-08-28T08:13:23.650Z,59.30
2016-08-28T08:14:18.954Z,59.30
2016-08-28T08:15:22.517Z,59.50
2016-08-28T08:16:23.537Z,58.50
2016-08-28T08:17:27.261Z,59.30
2016-08-28T08:18:21.728Z,59.30
2016-08-28T08:19:28.514Z,59.20
2016-08-28T08:20:12.932Z,59.20
2016-08-28T08:21:22.142Z,59.20
2016-08-28T08:22:22.802Z,is
2016-08-28T08:23:20.107Z,59.10
2016-08-28T08:24:21.807Z,59.10
2016-08-28T08:25:22.845Z,59.10
2016-08-28T08:26:24.352Z,59.70
2016-08-28T08:27:33.134Z,59.00
2016-08-28T08:28:21.992Z,59.00
2016-08-28T08:29:34.153Z,59.10
2016-08-28T08:30:22.438Z,59.00
2016-08-28T08:31:22.827Z,59.00
2016-08-28T08:32:23.205Z,59.10
2016-08-28T08:33:30.553Z,59.20
2016-08-28T08:34:21.857Z,59.20
2016-08-28T08:35:29.197Z,59.00
2016-08-28T08:36:21.495Z,59.10
2016-08-28T08:37:21.900Z,58.90
2016-08-28T08:38:33.584Z,59.00
2016-08-28T08:39:13.148Z,58.90
2016-08-28T08:40:22.677Z,58.90
2016-08-28T08:41:29.588Z,58.90
2016-08-28T08:42:32.816Z,59.00
2016-08-28T08:43:26.394Z,58.80
2016-08-28T08:44:26.137Z,58.80
2016-08-28T08:45:31.644Z,59.00
2016-08-28T08:46:31.855Z,58.80
2016-08-28T08:47:33.637Z,58.80
2016-08-28T08:48:31.496Z,58.70
2016-08-28T08:49:32.852Z,58.70
2016-08-28T08:50:23.516Z,58.80
2016-08-28T08:51:23.200Z,58.70
2016-08-28T08:52:23.092Z,58.70
2016-08-28T08:53:20.986Z,58.70
2016-08-28T08:54:22.645Z,58.70
2016-08-28T08:55:25.975Z,58.70
2016-08-28T08:56:20.746Z,58.70
2016-08-28T08:57:22.403Z,is
2016-08-28T08:58:21.096Z,58.80
2016-08-28T08:59:14.371Z,58.70
2016-08-28T09:00:30.544Z,58.70
2016-08-28T09:01:22.817Z,58.70
2016-08-28T09:02:22.229Z,58.70
2016-08-28T09:03:42.981Z,58.60
2016-08-28T09:04:32.021Z,58.60
2016-08-28T09:05:36.132Z,58.70
2016-08-28T09:06:28.655Z,58.50
2016-08-28T09:07:21.384Z,58.70
2016-08-28T09:08:23.927Z,58.70
2016-08-28T09:09:34.006Z,58.60
2016-08-28T09:10:27.751Z,58.60
2016-08-28T09:11:27.713Z,58.60
2016-08-28T09:12:33.839Z,58.40
2016-08-28T09:13:29.722Z,58.50
2016-08-28T09:14:30.983Z,58.40
2016-08-28T09:15:23.335Z,58.40
2016-08-28T09:16:23.439Z,58.40
2016-08-28T09:17:41.673Z,58.70
2016-08-28T09:18:29.539Z,58.50
2016-08-28T09:19:20.494Z,58.50
2016-08-28T09:20:20.423Z,58.40
2016-08-28T09:21:11.228Z,is
2016-08-28T09:22:13.863Z,58.40
2016-08-28T09:23:13.258Z,58.40
2016-08-28T09:24:11.543Z,58.40
2016-08-28T09:25:14.096Z,58.40
2016-08-28T09:26:20.293Z,58.30
2016-08-28T09:27:15.751Z,58.40
2016-08-28T09:28:16.670Z,is
2016-08-28T09:29:13.290Z,58.30
2016-08-28T09:30:13.466Z,58.20
2016-08-28T09:31:13.738Z,is
2016-08-28T09:32:13.759Z,58.30
2016-08-28T09:33:18.260Z,58.20
2016-08-28T09:34:29.095Z,58.20
2016-08-28T09:35:27.217Z,58.10
2016-08-28T09:36:20.988Z,58.20
2016-08-28T09:37:16.082Z,is
2016-08-28T09:38:14.672Z,58.00
2016-08-28T09:39:19.755Z,58.10
2016-08-28T09:40:18.130Z,58.10
2016-08-28T09:41:19.189Z,is
2016-08-28T09:42:17.785Z,58.00
2016-08-28T09:43:20.826Z,58.20
2016-08-28T09:44:21.704Z,58.10
2016-08-28T09:45:20.415Z,58.00
2016-08-28T09:46:15.642Z,58.10
2016-08-28T09:47:28.352Z,58.00
2016-08-28T09:48:22.110Z,57.90
2016-08-28T09:49:27.565Z,58.00
2016-08-28T09:50:32.046Z,58.10
2016-08-28T09:51:15.212Z,58.00
2016-08-28T09:52:22.180Z,58.00
2016-08-28T09:53:29.389Z,57.90
2016-08-28T09:54:20.754Z,58.10
2016-08-28T09:55:16.725Z,is
2016-08-28T09:56:13.503Z,57.90
2016-08-28T09:57:14.007Z,57.90
2016-08-28T09:58:18.360Z,57.90
2016-08-28T09:59:15.676Z,57.90
2016-08-28T10:00:19.247Z,57.90
2016-08-28T10:01:14.362Z,57.70
2016-08-28T10:02:36.543Z,57.80
2016-08-28T10:03:20.536Z,57.80
2016-08-28T10:04:15.188Z,57.70
2016-08-28T10:05:23.127Z,57.80
2016-08-28T10:06:14.008Z,57.70
2016-08-28T10:07:13.674Z,57.70
2016-08-28T10:08:21.360Z,57.90
2016-08-28T10:09:21.058Z,57.70
2016-08-28T10:10:15.465Z,57.80
2016-08-28T10:11:21.446Z,57.80
2016-08-28T10:12:20.652Z,57.70
2016-08-28T10:13:15.688Z,57.70
2016-08-28T10:14:13.141Z,57.70
2016-08-28T10:15:22.036Z,57.70
2016-08-28T10:16:13.267Z,57.80
2016-08-28T10:17:19.204Z,57.70
2016-08-28T10:18:21.954Z,57.70
2016-08-28T10:19:13.984Z,57.70
2016-08-28T10:20:18.887Z,57.70
2016-08-28T10:21:11.417Z,is
2016-08-28T10:22:23.956Z,57.70
2016-08-28T10:23:16.794Z,57.80
2016-08-28T10:24:21.372Z,57.70
2016-08-28T10:25:22.077Z,57.70
2016-08-28T10:26:15.941Z,57.80
2016-08-28T10:27:24.023Z,58.10
2016-08-28T10:28:19.710Z,58.00
2016-08-28T10:29:18.332Z,57.90
2016-08-28T10:30:13.267Z,58.00
2016-08-28T10:31:15.233Z,58.10
2016-08-28T10:32:17.375Z,58.10
2016-08-28T10:33:12.981Z,57.90
2016-08-28T10:34:24.191Z,58.10
2016-08-28T10:35:21.370Z,58.00
2016-08-28T10:36:16.110Z,58.00
2016-08-28T10:37:18.235Z,57.90
2016-08-28T10:38:13.758Z,58.00
2016-08-28T10:39:13.492Z,58.00
2016-08-28T10:40:22.169Z,58.00
2016-08-28T10:41:22.791Z,58.00
2016-08-28T10:42:21.247Z,58.00
2016-08-28T10:43:18.062Z,58.00
2016-08-28T10:44:14.683Z,57.90
2016-08-28T10:45:19.658Z,57.90
2016-08-28T10:46:15.612Z,58.00
2016-08-28T10:47:23.900Z,58.00
2016-08-28T10:48:18.139Z,57.90
2016-08-28T10:49:14.329Z,57.90
2016-08-28T10:50:22.756Z,58.10
2016-08-28T10:51:26.353Z,58.00
2016-08-28T10:52:14.626Z,58.10
2016-08-28T10:53:16.856Z,58.00
2016-08-28T10:54:12.957Z,58.10
2016-08-28T10:55:14.915Z,58.00
2016-08-28T10:56:14.771Z,57.90
2016-08-28T10:57:17.044Z,58.10
2016-08-28T10:58:16.734Z,58.00
2016-08-28T10:59:21.733Z,58.10
2016-08-28T11:00:14.095Z,58.00
2016-08-28T11:01:14.632Z,58.00
2016-08-28T11:02:18.746Z,58.00
2016-08-28T11:03:18.428Z,58.00
2016-08-28T11:04:19.327Z,58.00
2016-08-28T11:05:14.224Z,58.00
2016-08-28T11:06:13.581Z,58.10
2016-08-28T11:07:14.785Z,58.00
2016-08-28T11:08:14.674Z,58.00
2016-08-28T11:09:15.356Z,58.00
2016-08-28T11:10:22.686Z,57.90
2016-08-28T11:11:13.893Z,58.00
2016-08-28T11:12:13.737Z,58.00
2016-08-28T11:13:13.118Z,58.00
2016-08-28T11:14:16.824Z,58.00
2016-08-28T11:15:15.218Z,58.00
2016-08-28T11:16:20.571Z,58.00
2016-08-28T11:17:14.217Z,58.00
2016-08-28T11:18:15.501Z,58.10
2016-08-28T11:19:14.836Z,58.10
2016-08-28T11:20:16.722Z,58.10
2016-08-28T11:21:16.657Z,58.00
2016-08-28T11:22:16.085Z,58.00
2016-08-28T11:23:12.914Z,58.00
2016-08-28T11:24:22.517Z,58.00
2016-08-28T11:25:15.457Z,58.00
2016-08-28T11:26:15.230Z,58.10
2016-08-28T11:27:14.787Z,57.90
2016-08-28T11:28:19.351Z,58.00
2016-08-28T11:29:17.647Z,58.20
2016-08-28T11:30:12.803Z,58.20
2016-08-28T11:31:17.797Z,57.80
2016-08-28T11:32:12.614Z,57.90
2016-08-28T11:33:17.976Z,57.90
2016-08-28T11:34:12.414Z,58.00
2016-08-28T11:35:17.799Z,57.80
2016-08-28T11:36:17.157Z,57.90
2016-08-28T11:37:16.347Z,57.70
2016-08-28T11:38:16.019Z,57.10
2016-08-28T11:39:16.382Z,57.70
2016-08-28T11:40:14.206Z,57.70
2016-08-28T11:41:12.271Z,57.70
2016-08-28T11:42:18.469Z,58.20
2016-08-28T11:43:34.273Z,57.60
2016-08-28T11:44:13.700Z,57.70
2016-08-28T11:45:19.067Z,57.70
2016-08-28T11:46:20.061Z,57.50
2016-08-28T11:47:15.464Z,57.60
2016-08-28T11:48:21.047Z,57.70
2016-08-28T11:49:20.821Z,57.60
2016-08-28T11:50:18.562Z,is
2016-08-28T11:51:23.004Z,57.50
2016-08-28T11:52:24.167Z,57.50
2016-08-28T11:53:15.871Z,57.70
2016-08-28T11:54:18.945Z,57.50
2016-08-28T11:55:14.731Z,57.70
2016-08-28T11:56:19.338Z,57.50
2016-08-28T11:57:17.687Z,57.30
2016-08-28T11:58:20.607Z,57.50
2016-08-28T11:59:27.374Z,57.40
2016-08-28T12:00:16.805Z,57.50
2016-08-28T12:01:20.067Z,57.40
2016-08-28T12:02:19.841Z,57.80
2016-08-28T12:03:13.356Z,58.00
2016-08-28T12:04:15.005Z,57.80
2016-08-28T12:05:12.429Z,57.70
2016-08-28T12:06:14.620Z,57.60
2016-08-28T12:07:14.057Z,57.60
2016-08-28T12:08:17.470Z,57.60
2016-08-28T12:09:13.366Z,57.70
2016-08-28T12:10:20.185Z,57.80
2016-08-28T12:11:22.774Z,57.70
2016-08-28T12:12:15.922Z,57.70
2016-08-28T12:13:18.825Z,57.70
2016-08-28T12:14:16.704Z,57.60
2016-08-28T12:15:19.481Z,57.70
2016-08-28T12:16:18.349Z,57.70
2016-08-28T12:17:20.549Z,57.90
2016-08-28T12:18:20.503Z,57.70
2016-08-28T12:19:18.389Z,57.70
2016-08-28T12:20:16.656Z,57.70
2016-08-28T12:21:24.619Z,57.60
2016-08-28T12:22:12.220Z,is
2016-08-28T12:23:23.841Z,57.60
2016-08-28T12:24:18.351Z,57.60
2016-08-28T12:25:18.805Z,57.60
2016-08-28T12:26:14.286Z,57.50
2016-08-28T12:27:16.308Z,57.60
2016-08-28T12:28:22.808Z,57.50
2016-08-28T12:29:19.777Z,57.70
2016-08-28T12:30:21.731Z,57.60
2016-08-28T12:31:21.021Z,57.50
2016-08-28T12:32:16.954Z,57.50
2016-08-28T12:33:21.273Z,57.50
2016-08-28T12:34:23.072Z,57.50
2016-08-28T12:35:17.575Z,57.40
2016-08-28T12:36:15.030Z,57.50
2016-08-28T12:37:21.165Z,57.10
2016-08-28T12:38:14.152Z,57.50
2016-08-28T12:39:18.761Z,57.30
2016-08-28T12:40:14.291Z,57.50
2016-08-28T12:41:16.074Z,57.40
2016-08-28T12:42:16.458Z,57.30
2016-08-28T12:43:18.047Z,57.50
2016-08-28T12:44:21.119Z,is
2016-08-28T12:45:16.272Z,57.20
2016-08-28T12:46:18.076Z,57.30
2016-08-28T12:47:20.362Z,57.20
2016-08-28T12:48:14.546Z,is
2016-08-28T12:49:15.088Z,57.20
2016-08-28T12:50:19.794Z,57.20
2016-08-28T12:51:16.975Z,57.20
2016-08-28T12:52:16.902Z,57.40
2016-08-28T12:53:16.761Z,57.30
2016-08-28T12:54:22.291Z,57.40
2016-08-28T12:55:34.350Z,57.20
2016-08-28T12:56:31.684Z,57.20
2016-08-28T12:57:32.795Z,57.30